createdAt,value
2022-11-07T00:00:52.098Z,8.3
2022-11-07T00:01:55.988Z,8.3
2022-11-07T00:03:00.251Z,8.3
2022-11-07T00:04:03.814Z,8.3
2022-11-07T00:05:06.555Z,8.3
2022-11-07T00:06:10.005Z,8.3
2022-11-07T00:07:12.992Z,8.3
2022-11-07T00:08:16.189Z,8.3
2022-11-07T00:09:18.422Z,8.3
2022-11-07T00:10:21.324Z,8.3
2022-11-07T00:11:24.720Z,8.3
2022-11-07T00:12:27.919Z,8.3
2022-11-07T00:13:31.652Z,8.3
2022-11-07T00:14:35.113Z,8.3
2022-11-07T00:15:37.709Z,8.4
2022-11-07T00:16:41.384Z,8.3
2022-11-07T00:17:44.506Z,8.3
2022-11-07T00:18:47.304Z,8.4
2022-11-07T00:19:50.822Z,8.3
2022-11-07T00:20:54.436Z,8.4
2022-11-07T00:21:57.792Z,8.4
2022-11-07T00:23:00.579Z,8.4
2022-11-07T00:24:03.406Z,8.4
2022-11-07T00:25:06.507Z,8.4
2022-11-07T00:26:09.264Z,8.4
2022-11-07T00:27:13.440Z,8.4
2022-11-07T00:28:16.591Z,8.4
2022-11-07T00:29:19.027Z,8.4
2022-11-07T00:30:22.165Z,8.4
2022-11-07T00:31:25.155Z,8.5
2022-11-07T00:32:28.171Z,8.5
2022-11-07T00:33:32.034Z,8.5
2022-11-07T00:34:35.580Z,8.5
2022-11-07T00:35:38.950Z,8.5
2022-11-07T00:36:42.402Z,8.5
2022-11-07T00:37:45.110Z,8.5
2022-11-07T00:38:48.274Z,8.6
2022-11-07T00:39:51.680Z,8.6
2022-11-07T00:40:54.668Z,8.6
2022-11-07T00:41:58.105Z,8.6
2022-11-07T00:43:01.049Z,8.6
2022-11-07T00:44:04.409Z,8.6
2022-11-07T00:45:07.311Z,8.6
2022-11-07T00:46:10.290Z,8.6
2022-11-07T00:47:13.435Z,8.7
2022-11-07T00:48:16.186Z,8.6
2022-11-07T00:49:19.448Z,8.7
2022-11-07T00:50:22.464Z,8.7
2022-11-07T00:51:25.645Z,8.6
2022-11-07T00:52:28.739Z,8.7
2022-11-07T00:53:31.505Z,8.7
2022-11-07T00:54:34.397Z,8.8
2022-11-07T00:55:37.458Z,8.8
2022-11-07T00:56:40.169Z,8.8
2022-11-07T00:57:43.331Z,8.8
2022-11-07T00:58:46.605Z,8.8
2022-11-07T00:59:49.732Z,8.8
2022-11-07T01:00:52.186Z,8.8
2022-11-07T01:01:55.898Z,8.8
2022-11-07T01:02:59.424Z,8.8
2022-11-07T01:04:02.281Z,8.8
2022-11-07T01:05:05.738Z,8.8
2022-11-07T01:06:08.462Z,8.8
2022-11-07T01:07:11.366Z,8.8
2022-11-07T01:08:13.851Z,8.8
2022-11-07T01:09:17.193Z,8.8
2022-11-07T01:10:20.073Z,8.9
2022-11-07T01:11:23.156Z,8.9
2022-11-07T01:12:25.330Z,8.9
2022-11-07T01:13:28.690Z,8.8
2022-11-07T01:14:31.759Z,8.9
2022-11-07T01:15:34.499Z,8.9
2022-11-07T01:16:37.313Z,8.9
2022-11-07T01:17:40.963Z,8.9
2022-11-07T01:18:44.064Z,8.9
2022-11-07T01:19:46.889Z,8.9
2022-11-07T01:20:49.884Z,8.9
2022-11-07T01:21:53.619Z,8.9
2022-11-07T01:22:57.083Z,8.9
2022-11-07T01:24:00.176Z,8.9
2022-11-07T01:25:02.909Z,8.9
2022-11-07T01:26:05.417Z,8.8
2022-11-07T01:27:09.155Z,8.8
2022-11-07T01:28:11.608Z,8.9
2022-11-07T01:29:14.713Z,8.9
2022-11-07T01:30:17.868Z,8.9
2022-11-07T01:31:21.114Z,8.8
2022-11-07T01:32:24.489Z,8.9
2022-11-07T01:33:27.282Z,8.9
2022-11-07T01:34:30.281Z,8.9
2022-11-07T01:35:33.037Z,8.9
2022-11-07T01:36:35.685Z,8.9
2022-11-07T01:37:39.139Z,8.9
2022-11-07T01:38:42.574Z,8.9
2022-11-07T01:39:46.425Z,8.9
2022-11-07T01:40:49.018Z,8.9
2022-11-07T01:41:51.944Z,8.9
2022-11-07T01:42:55.048Z,8.9
2022-11-07T01:43:58.265Z,8.9
2022-11-07T01:45:02.286Z,8.9
2022-11-07T01:46:04.987Z,8.9
2022-11-07T01:47:08.576Z,8.9
2022-11-07T01:48:11.015Z,8.9
2022-11-07T01:49:13.738Z,8.9
2022-11-07T01:50:16.185Z,8.9
2022-11-07T01:51:18.998Z,8.9
2022-11-07T01:52:22.376Z,8.9
2022-11-07T01:53:25.442Z,8.9
2022-11-07T01:54:29.045Z,8.9
2022-11-07T01:55:32.071Z,9
2022-11-07T01:56:34.565Z,8.9
2022-11-07T01:57:37.115Z,8.9
2022-11-07T01:58:40.300Z,8.9
2022-11-07T01:59:43.402Z,9
2022-11-07T02:00:46.195Z,9
2022-11-07T02:01:49.932Z,9
2022-11-07T02:02:54.544Z,9
2022-11-07T02:03:57.507Z,8.9
2022-11-07T02:04:59.850Z,8.9
2022-11-07T02:06:02.923Z,8.9
2022-11-07T02:07:06.630Z,8.9
2022-11-07T02:08:10.276Z,8.9
2022-11-07T02:09:12.783Z,8.9
2022-11-07T02:10:15.948Z,8.9
2022-11-07T02:11:19.676Z,8.9
2022-11-07T02:12:22.175Z,8.9
2022-11-07T02:13:25.528Z,8.9
2022-11-07T02:14:28.744Z,8.9
2022-11-07T02:15:31.549Z,8.9
2022-11-07T02:16:34.969Z,8.9
2022-11-07T02:17:37.888Z,8.9
2022-11-07T02:18:41.517Z,8.9
2022-11-07T02:19:44.405Z,8.9
2022-11-07T02:20:47.488Z,8.9
2022-11-07T02:21:50.483Z,8.9
2022-11-07T02:22:53.584Z,8.9
2022-11-07T02:23:56.770Z,8.9
2022-11-07T02:24:59.927Z,8.9
2022-11-07T02:26:02.853Z,9
2022-11-07T02:27:05.943Z,8.9
2022-11-07T02:28:08.746Z,9
2022-11-07T02:29:11.655Z,8.9
2022-11-07T02:30:14.202Z,8.9
2022-11-07T02:31:17.000Z,8.9
2022-11-07T02:32:19.796Z,9
2022-11-07T02:33:22.946Z,8.9
2022-11-07T02:34:25.781Z,8.9
2022-11-07T02:35:28.364Z,8.9
2022-11-07T02:36:31.313Z,8.9
2022-11-07T02:37:33.827Z,9
2022-11-07T02:38:37.027Z,9
2022-11-07T02:39:40.424Z,9
2022-11-07T02:40:43.923Z,9
2022-11-07T02:41:47.307Z,9
2022-11-07T02:42:50.972Z,9
2022-11-07T02:43:54.216Z,9
2022-11-07T02:44:56.736Z,9
2022-11-07T02:46:00.204Z,9
2022-11-07T02:47:03.702Z,9
2022-11-07T02:48:06.211Z,9
2022-11-07T02:49:08.463Z,9
2022-11-07T02:50:11.580Z,9
2022-11-07T02:51:14.747Z,9.1
2022-11-07T02:52:18.044Z,9.1
2022-11-07T02:53:20.838Z,9
2022-11-07T02:54:23.665Z,9
2022-11-07T02:55:26.721Z,9
2022-11-07T02:56:29.658Z,9.1
2022-11-07T02:57:32.982Z,9
2022-11-07T02:58:36.442Z,9
2022-11-07T02:59:39.564Z,9
2022-11-07T03:00:42.551Z,9
2022-11-07T03:01:46.843Z,9
2022-11-07T03:02:50.105Z,9
2022-11-07T03:03:53.051Z,9
2022-11-07T03:04:55.651Z,9.1
2022-11-07T03:05:57.928Z,9
2022-11-07T03:07:00.998Z,9
2022-11-07T03:08:05.074Z,9
2022-11-07T03:09:08.529Z,9
2022-11-07T03:10:11.202Z,9
2022-11-07T03:11:14.934Z,9
2022-11-07T03:12:17.926Z,9
2022-11-07T03:13:21.159Z,9
2022-11-07T03:14:25.262Z,8.9
2022-11-07T03:15:28.172Z,9
2022-11-07T03:16:31.248Z,8.9
2022-11-07T03:17:33.718Z,9
2022-11-07T03:18:37.074Z,9
2022-11-07T03:19:39.897Z,9
2022-11-07T03:20:42.412Z,8.9
2022-11-07T03:21:45.548Z,8.9
2022-11-07T03:22:48.537Z,8.9
2022-11-07T03:23:51.730Z,8.9
2022-11-07T03:24:54.715Z,8.9
2022-11-07T03:25:57.558Z,8.9
2022-11-07T03:27:00.400Z,8.9
2022-11-07T03:28:03.831Z,8.9
2022-11-07T03:29:07.578Z,9
2022-11-07T03:30:10.697Z,8.9
2022-11-07T03:31:13.572Z,9
2022-11-07T03:32:16.283Z,9
2022-11-07T03:33:19.577Z,9
2022-11-07T03:34:22.951Z,9
2022-11-07T03:35:26.047Z,9
2022-11-07T03:36:29.419Z,8.9
2022-11-07T03:37:32.543Z,9
2022-11-07T03:38:35.623Z,9
2022-11-07T03:39:38.773Z,8.9
2022-11-07T03:40:42.386Z,9
2022-11-07T03:41:45.551Z,9
2022-11-07T03:42:48.338Z,9
2022-11-07T03:43:51.484Z,9
2022-11-07T03:44:54.841Z,9
2022-11-07T03:45:57.381Z,9
2022-11-07T03:46:59.900Z,9.1
2022-11-07T03:48:03.277Z,9.1
2022-11-07T03:49:06.378Z,9.1
2022-11-07T03:50:09.527Z,9
2022-11-07T03:51:12.956Z,9
2022-11-07T03:52:15.838Z,9
2022-11-07T03:53:28.565Z,9
2022-11-07T03:54:31.436Z,9
2022-11-07T03:55:34.541Z,9
2022-11-07T03:56:37.405Z,9
2022-11-07T03:57:40.271Z,9
2022-11-07T03:58:43.166Z,9.1
2022-11-07T03:59:46.332Z,9.1
2022-11-07T04:00:49.437Z,9
2022-11-07T04:01:53.872Z,9.1
2022-11-07T04:02:58.063Z,9.1
2022-11-07T04:04:01.007Z,9.1
2022-11-07T04:05:04.098Z,9
2022-11-07T04:06:07.524Z,9
2022-11-07T04:07:10.235Z,9
2022-11-07T04:08:13.132Z,9
2022-11-07T04:09:16.165Z,9
2022-11-07T04:10:19.508Z,9
2022-11-07T04:11:23.166Z,9
2022-11-07T04:12:25.677Z,9
2022-11-07T04:13:28.922Z,9
2022-11-07T04:14:32.086Z,9
2022-11-07T04:15:35.155Z,9
2022-11-07T04:16:37.962Z,8.9
2022-11-07T04:17:40.517Z,9
2022-11-07T04:18:43.447Z,9
2022-11-07T04:19:46.894Z,9
2022-11-07T04:20:49.790Z,9
2022-11-07T04:21:52.393Z,9.1
2022-11-07T04:22:55.385Z,9
2022-11-07T04:23:58.387Z,9
2022-11-07T04:25:01.900Z,9.1
2022-11-07T04:26:04.073Z,9
2022-11-07T04:27:07.049Z,9.1
2022-11-07T04:28:09.834Z,9
2022-11-07T04:29:12.832Z,9
2022-11-07T04:30:16.299Z,9
2022-11-07T04:31:19.200Z,9.1
2022-11-07T04:32:22.810Z,9
2022-11-07T04:33:26.001Z,9.1
2022-11-07T04:34:28.901Z,9.1
2022-11-07T04:35:31.965Z,9.1
2022-11-07T04:36:34.874Z,9.1
2022-11-07T04:37:38.044Z,9.1
2022-11-07T04:38:41.037Z,9.1
2022-11-07T04:39:43.277Z,9.1
2022-11-07T04:40:46.639Z,9.1
2022-11-07T04:41:49.812Z,9.2
2022-11-07T04:42:52.676Z,9.2
2022-11-07T04:43:55.864Z,9.2
2022-11-07T04:44:58.672Z,9.2
2022-11-07T04:46:02.044Z,9.2
2022-11-07T04:47:04.554Z,9.2
2022-11-07T04:48:07.361Z,9.2
2022-11-07T04:49:10.814Z,9.2
2022-11-07T04:50:13.632Z,9.2
2022-11-07T04:51:16.811Z,9.2
2022-11-07T04:52:20.016Z,9.3
2022-11-07T04:53:22.521Z,9.3
2022-11-07T04:54:25.240Z,9.3
2022-11-07T04:55:28.307Z,9.3
2022-11-07T04:56:36.329Z,9.3
2022-11-07T04:57:39.334Z,9.4
2022-11-07T04:58:41.491Z,9.4
2022-11-07T04:59:44.489Z,9.3
2022-11-07T05:00:47.593Z,9.3
2022-11-07T05:01:51.717Z,9.3
2022-11-07T05:02:54.567Z,9.3
2022-11-07T05:03:58.470Z,9.3
2022-11-07T05:05:01.296Z,9.3
2022-11-07T05:06:04.653Z,9.3
2022-11-07T05:07:07.526Z,9.3
2022-11-07T05:08:10.895Z,9.4
2022-11-07T05:09:13.892Z,9.4
2022-11-07T05:10:17.258Z,9.4
2022-11-07T05:11:19.687Z,9.4
2022-11-07T05:12:22.451Z,9.4
2022-11-07T05:13:25.446Z,9.4
2022-11-07T05:14:28.319Z,9.5
2022-11-07T05:15:31.123Z,9.5
2022-11-07T05:16:34.137Z,9.5
2022-11-07T05:17:37.132Z,9.5
2022-11-07T05:18:39.739Z,9.5
2022-11-07T05:19:43.260Z,9.5
2022-11-07T05:20:46.641Z,9.6
2022-11-07T05:21:49.594Z,9.6
2022-11-07T05:22:58.175Z,9.6
2022-11-07T05:24:01.555Z,9.6
2022-11-07T05:25:05.014Z,9.6
2022-11-07T05:26:07.822Z,9.6
2022-11-07T05:27:10.677Z,9.6
2022-11-07T05:28:13.519Z,9.6
2022-11-07T05:29:16.670Z,9.6
2022-11-07T05:30:19.468Z,9.6
2022-11-07T05:31:22.455Z,9.7
2022-11-07T05:32:25.360Z,9.7
2022-11-07T05:33:28.825Z,9.6
2022-11-07T05:34:31.821Z,9.7
2022-11-07T05:35:34.744Z,9.7
2022-11-07T05:36:37.498Z,9.7
2022-11-07T05:37:40.724Z,9.7
2022-11-07T05:38:43.816Z,9.7
2022-11-07T05:39:54.797Z,9.7
2022-11-07T05:40:57.821Z,9.7
2022-11-07T05:42:00.262Z,9.7
2022-11-07T05:43:03.094Z,9.7
2022-11-07T05:44:06.479Z,9.7
2022-11-07T05:45:09.473Z,9.7
2022-11-07T05:46:12.297Z,9.7
2022-11-07T05:47:15.673Z,9.7
2022-11-07T05:48:19.504Z,9.6
2022-11-07T05:49:22.606Z,9.7
2022-11-07T05:50:25.780Z,9.7
2022-11-07T05:51:28.609Z,9.7
2022-11-07T05:52:31.435Z,9.6
2022-11-07T05:53:35.320Z,9.6
2022-11-07T05:54:38.097Z,9.6
2022-11-07T05:55:41.119Z,9.6
2022-11-07T05:56:43.637Z,9.7
2022-11-07T05:57:46.832Z,9.7
2022-11-07T05:58:49.352Z,9.7
2022-11-07T05:59:52.541Z,9.7
2022-11-07T06:00:55.624Z,9.7
2022-11-07T06:01:59.214Z,9.7
2022-11-07T06:03:02.331Z,9.7
2022-11-07T06:04:06.243Z,9.6
2022-11-07T06:05:09.228Z,9.6
2022-11-07T06:06:12.222Z,9.6
2022-11-07T06:07:16.618Z,9.6
2022-11-07T06:08:19.515Z,9.6
2022-11-07T06:09:23.145Z,9.6
2022-11-07T06:10:26.709Z,9.6
2022-11-07T06:11:29.554Z,9.6
2022-11-07T06:12:32.174Z,9.5
2022-11-07T06:13:35.164Z,9.5
2022-11-07T06:14:37.954Z,9.5
2022-11-07T06:15:41.352Z,9.5
2022-11-07T06:16:44.363Z,9.4
2022-11-07T06:17:46.786Z,9.5
2022-11-07T06:18:49.313Z,9.5
2022-11-07T06:19:52.576Z,9.4
2022-11-07T06:20:56.313Z,9.5
2022-11-07T06:21:58.854Z,9.5
2022-11-07T06:23:02.336Z,9.5
2022-11-07T06:24:05.222Z,9.4
2022-11-07T06:25:07.957Z,9.4
2022-11-07T06:26:11.316Z,9.4
2022-11-07T06:27:13.871Z,9.4
2022-11-07T06:28:16.677Z,9.4
2022-11-07T06:29:19.675Z,9.4
2022-11-07T06:30:22.391Z,9.4
2022-11-07T06:31:25.446Z,9.4
2022-11-07T06:32:27.887Z,9.4
2022-11-07T06:33:31.310Z,9.3
2022-11-07T06:34:33.913Z,9.3
2022-11-07T06:35:36.643Z,9.4
2022-11-07T06:36:40.662Z,9.4
2022-11-07T06:37:43.470Z,9.4
2022-11-07T06:38:47.224Z,9.4
2022-11-07T06:39:50.412Z,9.4
2022-11-07T06:40:53.239Z,9.4
2022-11-07T06:41:56.462Z,9.4
2022-11-07T06:42:59.475Z,9.4
2022-11-07T06:44:02.202Z,9.4
2022-11-07T06:45:05.056Z,9.5
2022-11-07T06:46:07.610Z,9.5
2022-11-07T06:47:10.725Z,9.5
2022-11-07T06:48:13.781Z,9.5
2022-11-07T06:49:17.231Z,9.6
2022-11-07T06:50:19.748Z,9.5
2022-11-07T06:51:22.553Z,9.5
2022-11-07T06:52:26.012Z,9.5
2022-11-07T06:53:28.830Z,9.6
2022-11-07T06:54:31.929Z,9.6
2022-11-07T06:55:35.065Z,9.6
2022-11-07T06:56:38.688Z,9.6
2022-11-07T06:57:41.566Z,9.6
2022-11-07T06:58:45.254Z,9.6
2022-11-07T06:59:53.697Z,9.6
2022-11-07T07:00:56.816Z,9.6
2022-11-07T07:02:00.632Z,9.6
2022-11-07T07:03:05.009Z,9.5
2022-11-07T07:04:08.099Z,9.6
2022-11-07T07:05:10.359Z,9.5
2022-11-07T07:06:13.098Z,9.6
2022-11-07T07:07:16.036Z,9.6
2022-11-07T07:08:19.266Z,9.6
2022-11-07T07:09:22.266Z,9.6
2022-11-07T07:10:26.233Z,9.6
2022-11-07T07:11:29.378Z,9.6
2022-11-07T07:12:33.012Z,9.6
2022-11-07T07:13:35.830Z,9.6
2022-11-07T07:14:39.497Z,9.6
2022-11-07T07:15:53.157Z,9.6
2022-11-07T07:16:56.810Z,9.6
2022-11-07T07:17:59.543Z,9.7
2022-11-07T07:19:03.059Z,9.7
2022-11-07T07:20:05.527Z,9.7
2022-11-07T07:21:09.199Z,9.8
2022-11-07T07:22:12.290Z,9.8
2022-11-07T07:23:15.909Z,9.8
2022-11-07T07:24:20.024Z,9.8
2022-11-07T07:25:23.252Z,9.8
2022-11-07T07:26:26.916Z,9.9
2022-11-07T07:27:30.489Z,9.9
2022-11-07T07:28:34.203Z,9.9
2022-11-07T07:29:37.113Z,9.9
2022-11-07T07:30:40.685Z,9.9
2022-11-07T07:31:43.486Z,10
2022-11-07T07:32:46.934Z,10
2022-11-07T07:33:49.719Z,10
2022-11-07T07:34:53.325Z,10
2022-11-07T07:35:56.825Z,10
2022-11-07T07:36:59.549Z,10
2022-11-07T07:38:02.466Z,10
2022-11-07T07:39:05.583Z,10
2022-11-07T07:40:09.763Z,10
2022-11-07T07:41:12.860Z,10
2022-11-07T07:42:16.243Z,10
2022-11-07T07:43:20.811Z,10
2022-11-07T07:44:23.837Z,10.1
2022-11-07T07:45:26.990Z,10.2
2022-11-07T07:46:30.185Z,10.2
2022-11-07T07:47:33.271Z,10.3
2022-11-07T07:48:36.275Z,10.4
2022-11-07T07:49:39.271Z,10.4
2022-11-07T07:50:42.274Z,10.4
2022-11-07T07:51:45.087Z,10.4
2022-11-07T07:52:48.538Z,10.4
2022-11-07T07:53:51.633Z,10.4
2022-11-07T07:54:54.766Z,10.4
2022-11-07T07:55:58.523Z,10.4
2022-11-07T07:57:01.064Z,10.4
2022-11-07T07:58:05.035Z,10.4
2022-11-07T07:59:08.328Z,10.3
2022-11-07T08:00:11.421Z,10.4
2022-11-07T08:01:14.833Z,10.4
2022-11-07T08:02:18.260Z,10.4
2022-11-07T08:03:21.055Z,10.4
2022-11-07T08:04:24.147Z,10.5
2022-11-07T08:05:26.397Z,10.6
2022-11-07T08:06:29.736Z,10.6
2022-11-07T08:07:33.550Z,10.7
2022-11-07T08:08:39.963Z,10.7
2022-11-07T08:09:42.948Z,10.8
2022-11-07T08:10:46.275Z,10.9
2022-11-07T08:11:49.483Z,10.9
2022-11-07T08:12:52.651Z,11
2022-11-07T08:14:03.389Z,11.1
2022-11-07T08:15:06.424Z,11.2
2022-11-07T08:16:10.161Z,11.1
2022-11-07T08:17:13.517Z,11.1
2022-11-07T08:18:17.094Z,11.1
2022-11-07T08:19:19.607Z,11.1
2022-11-07T08:20:22.988Z,11.2
2022-11-07T08:21:25.808Z,11.2
2022-11-07T08:22:29.373Z,11.3
2022-11-07T08:23:31.362Z,11.3
2022-11-07T08:24:34.190Z,11.3
2022-11-07T08:25:36.790Z,11.4
2022-11-07T08:26:40.189Z,11.4
2022-11-07T08:27:43.753Z,11.4
2022-11-07T08:28:46.357Z,11.5
2022-11-07T08:29:49.976Z,11.6
2022-11-07T08:30:52.980Z,11.6
2022-11-07T08:31:55.667Z,11.6
2022-11-07T08:32:58.265Z,11.7
2022-11-07T08:34:01.588Z,11.7
2022-11-07T08:35:04.830Z,11.8
2022-11-07T08:36:07.833Z,11.9
2022-11-07T08:37:11.557Z,12
2022-11-07T08:38:14.790Z,12
2022-11-07T08:39:18.435Z,12
2022-11-07T08:40:21.227Z,12.1
2022-11-07T08:41:24.171Z,12.1
2022-11-07T08:42:27.259Z,12.1
2022-11-07T08:43:30.652Z,12.2
2022-11-07T08:44:34.094Z,12.2
2022-11-07T08:45:36.990Z,12.3
2022-11-07T08:46:39.528Z,12.4
2022-11-07T08:47:42.314Z,12.4
2022-11-07T08:48:45.311Z,12.4
2022-11-07T08:49:48.224Z,12.3
2022-11-07T08:50:51.383Z,12.2
2022-11-07T08:51:54.373Z,12.3
2022-11-07T08:53:04.820Z,12.5
2022-11-07T08:54:08.064Z,12.6
2022-11-07T08:55:10.667Z,12.7
2022-11-07T08:56:14.117Z,12.7
2022-11-07T08:57:16.668Z,12.7
2022-11-07T08:58:19.877Z,12.7
2022-11-07T08:59:23.664Z,12.8
2022-11-07T09:00:26.562Z,12.9
2022-11-07T09:01:31.250Z,12.9
2022-11-07T09:03:59.178Z,12.9
2022-11-07T09:05:03.491Z,13.2
2022-11-07T09:06:07.220Z,13.2
2022-11-07T09:07:10.290Z,13.2
2022-11-07T09:08:13.107Z,13.3
2022-11-07T09:09:18.272Z,13.4
2022-11-07T09:10:21.349Z,13.5
2022-11-07T09:11:24.782Z,13.5
2022-11-07T09:12:27.580Z,13.4
2022-11-07T09:13:30.994Z,13.4
2022-11-07T09:14:35.015Z,13.5
2022-11-07T09:15:37.960Z,13.7
2022-11-07T09:16:41.561Z,13.8
2022-11-07T09:17:44.698Z,13.9
2022-11-07T09:18:48.379Z,13.8
2022-11-07T09:19:50.923Z,13.9
2022-11-07T09:20:54.021Z,13.8
2022-11-07T09:21:56.894Z,13.8
2022-11-07T09:23:00.330Z,13.8
2022-11-07T09:24:03.813Z,13.8
2022-11-07T09:25:08.054Z,13.9
2022-11-07T09:26:11.423Z,13.7
2022-11-07T09:27:15.042Z,13.6
2022-11-07T09:28:17.753Z,13.6
2022-11-07T09:29:20.957Z,13.5
2022-11-07T09:30:23.874Z,13.6
2022-11-07T09:31:27.390Z,13.5
2022-11-07T09:32:47.502Z,13.5
2022-11-07T09:33:50.291Z,13.4
2022-11-07T09:35:06.509Z,13.3
2022-11-07T09:36:09.231Z,13.3
2022-11-07T09:37:12.035Z,13.5
2022-11-07T09:38:15.201Z,13.6
2022-11-07T09:39:18.505Z,13.7
2022-11-07T09:40:22.308Z,13.6
2022-11-07T09:41:26.505Z,13.6
2022-11-07T09:42:28.953Z,13.6
2022-11-07T09:43:31.112Z,13.7
2022-11-07T09:44:38.966Z,13.8
2022-11-07T09:45:42.364Z,13.8
2022-11-07T09:46:45.797Z,13.8
2022-11-07T09:47:49.286Z,13.6
2022-11-07T09:48:52.353Z,13.7
2022-11-07T09:49:55.444Z,13.7
2022-11-07T09:50:58.896Z,13.7
2022-11-07T09:52:02.916Z,13.8
2022-11-07T09:53:06.378Z,13.7
2022-11-07T09:54:09.614Z,13.6
2022-11-07T09:55:11.875Z,13.6
2022-11-07T09:56:14.911Z,13.6
2022-11-07T09:57:18.459Z,13.4
2022-11-07T09:58:22.635Z,13.4
2022-11-07T09:59:25.816Z,13.2
2022-11-07T10:00:29.313Z,13.2
2022-11-07T10:01:33.553Z,13.2
2022-11-07T10:02:36.063Z,13.2
2022-11-07T10:03:38.924Z,13.2
2022-11-07T10:04:42.101Z,13.2
2022-11-07T10:05:45.841Z,13.2
2022-11-07T10:06:48.966Z,13.2
2022-11-07T10:07:51.835Z,13.2
2022-11-07T10:08:54.447Z,13.2
2022-11-07T10:09:57.236Z,13.2
2022-11-07T10:11:00.331Z,13.4
2022-11-07T10:12:03.455Z,13.3
2022-11-07T10:13:07.257Z,13.3
2022-11-07T10:14:09.977Z,13.3
2022-11-07T10:15:12.966Z,13.2
2022-11-07T10:16:15.605Z,13.3
2022-11-07T10:17:18.774Z,13.3
2022-11-07T10:18:21.661Z,13.2
2022-11-07T10:19:24.785Z,13.2
2022-11-07T10:20:28.007Z,13.2
2022-11-07T10:21:40.808Z,13.1
2022-11-07T10:22:43.605Z,13.1
2022-11-07T10:23:46.132Z,13.1
2022-11-07T10:24:49.134Z,13.1
2022-11-07T10:25:52.190Z,13.1
2022-11-07T10:26:55.326Z,13.1
2022-11-07T10:27:58.939Z,13.1
2022-11-07T10:29:02.018Z,13.1
2022-11-07T10:30:05.116Z,13.1
2022-11-07T10:31:08.580Z,13.1
2022-11-07T10:32:11.759Z,13.1
2022-11-07T10:33:17.203Z,13.1
2022-11-07T10:34:20.985Z,13.1
2022-11-07T10:35:24.754Z,13.2
2022-11-07T10:36:27.845Z,13.2
2022-11-07T10:37:30.925Z,13.2
2022-11-07T10:38:33.466Z,13.2
2022-11-07T10:39:37.216Z,13.2
2022-11-07T10:40:40.660Z,13.3
2022-11-07T10:41:44.293Z,13.3
2022-11-07T10:42:47.681Z,13.4
2022-11-07T10:43:50.552Z,13.4
2022-11-07T10:44:53.647Z,13.3
2022-11-07T10:45:56.740Z,13.4
2022-11-07T10:47:00.537Z,13.4
2022-11-07T10:48:04.082Z,13.4
2022-11-07T10:49:07.538Z,13.5
2022-11-07T10:50:10.538Z,13.6
2022-11-07T10:51:13.419Z,13.8
2022-11-07T10:52:17.141Z,13.9
2022-11-07T10:53:19.983Z,14.2
2022-11-07T10:54:23.626Z,14.4
2022-11-07T10:55:26.659Z,14.6
2022-11-07T10:56:29.376Z,14.9
2022-11-07T10:57:32.648Z,14.9
2022-11-07T10:58:36.112Z,14.8
2022-11-07T10:59:39.809Z,14.7
2022-11-07T11:00:43.449Z,14.5
2022-11-07T11:01:47.930Z,14.5
2022-11-07T11:02:50.811Z,14.5
2022-11-07T11:03:53.809Z,14.5
2022-11-07T11:04:57.551Z,14.4
2022-11-07T11:06:00.937Z,14.4
2022-11-07T11:07:05.025Z,14.5
2022-11-07T11:08:07.816Z,14.4
2022-11-07T11:09:10.395Z,14.3
2022-11-07T11:10:13.192Z,14.2
2022-11-07T11:11:16.864Z,14.1
2022-11-07T11:12:19.734Z,13.9
2022-11-07T11:13:22.535Z,13.9
2022-11-07T11:14:25.335Z,13.9
2022-11-07T11:15:37.504Z,13.9
2022-11-07T11:16:41.432Z,13.9
2022-11-07T11:17:44.694Z,13.7
2022-11-07T11:18:47.228Z,13.7
2022-11-07T11:19:50.095Z,13.7
2022-11-07T11:20:53.887Z,13.6
2022-11-07T11:21:57.345Z,13.7
2022-11-07T11:23:00.729Z,13.6
2022-11-07T11:24:03.477Z,13.6
2022-11-07T11:25:06.894Z,13.6
2022-11-07T11:26:10.235Z,13.6
2022-11-07T11:27:13.381Z,13.6
2022-11-07T11:28:18.391Z,13.6
2022-11-07T11:29:22.893Z,13.6
2022-11-07T11:30:25.881Z,13.6
2022-11-07T11:31:29.524Z,13.6
2022-11-07T11:32:32.599Z,13.7
2022-11-07T11:33:36.061Z,13.8
2022-11-07T11:34:39.415Z,14
2022-11-07T11:35:44.438Z,14
2022-11-07T11:36:47.909Z,14
2022-11-07T11:37:50.769Z,14.1
2022-11-07T11:38:54.510Z,14.2
2022-11-07T11:39:57.933Z,14.2
2022-11-07T11:41:12.303Z,14.3
2022-11-07T11:42:15.148Z,14.5
2022-11-07T11:43:20.006Z,14.6
2022-11-07T11:44:23.145Z,14.7
2022-11-07T11:45:26.146Z,14.7
2022-11-07T11:46:29.609Z,14.8
2022-11-07T11:47:36.228Z,14.8
2022-11-07T11:48:39.968Z,14.8
2022-11-07T11:49:43.066Z,14.9
2022-11-07T11:50:46.266Z,14.8
2022-11-07T11:51:49.614Z,14.6
2022-11-07T11:52:53.497Z,14.5
2022-11-07T11:53:56.376Z,14.5
2022-11-07T11:54:59.741Z,14.5
2022-11-07T11:56:02.752Z,14.4
2022-11-07T11:57:06.129Z,14.3
2022-11-07T11:58:10.171Z,14.3
2022-11-07T11:59:13.490Z,14.3
2022-11-07T12:00:16.670Z,14.3
2022-11-07T12:01:19.726Z,14.2
2022-11-07T12:02:22.972Z,14.2
2022-11-07T12:03:26.467Z,14.2
2022-11-07T12:04:29.844Z,14.2
2022-11-07T12:05:33.197Z,14.2
2022-11-07T12:06:35.920Z,14.1
2022-11-07T12:07:39.010Z,14.1
2022-11-07T12:08:42.468Z,14.1
2022-11-07T12:09:46.571Z,14
2022-11-07T12:10:49.477Z,13.9
2022-11-07T12:11:52.388Z,13.9
2022-11-07T12:12:55.592Z,13.9
2022-11-07T12:13:59.344Z,13.9
2022-11-07T12:15:02.769Z,13.9
2022-11-07T12:16:04.911Z,13.9
2022-11-07T12:17:07.686Z,13.8
2022-11-07T12:18:11.388Z,13.8
2022-11-07T12:19:14.790Z,13.9
2022-11-07T12:20:18.341Z,13.8
2022-11-07T12:21:21.376Z,13.8
2022-11-07T12:22:24.723Z,13.7
2022-11-07T12:23:28.089Z,13.8
2022-11-07T12:24:31.788Z,13.7
2022-11-07T12:25:35.437Z,13.7
2022-11-07T12:26:38.606Z,13.7
2022-11-07T12:27:42.243Z,13.7
2022-11-07T12:28:45.720Z,13.7
2022-11-07T12:29:49.767Z,13.7
2022-11-07T12:30:53.288Z,13.6
2022-11-07T12:31:56.822Z,13.6
2022-11-07T12:32:59.548Z,13.6
2022-11-07T12:34:02.932Z,13.6
2022-11-07T12:35:05.697Z,13.6
2022-11-07T12:36:09.612Z,13.5
2022-11-07T12:37:12.689Z,13.6
2022-11-07T12:38:15.232Z,13.6
2022-11-07T12:39:18.390Z,13.5
2022-11-07T12:40:21.765Z,13.6
2022-11-07T12:41:25.092Z,13.5
2022-11-07T12:42:28.681Z,13.5
2022-11-07T12:43:32.197Z,13.4
2022-11-07T12:44:35.331Z,13.4
2022-11-07T12:45:38.806Z,13.4
2022-11-07T12:46:41.990Z,13.4
2022-11-07T12:47:44.771Z,13.4
2022-11-07T12:48:47.944Z,13.4
2022-11-07T12:49:50.276Z,13.4
2022-11-07T12:50:53.375Z,13.4
2022-11-07T12:51:56.508Z,13.4
2022-11-07T12:52:59.402Z,13.3
2022-11-07T12:54:02.465Z,13.3
2022-11-07T12:55:05.985Z,13.3
2022-11-07T12:56:09.108Z,13.3
2022-11-07T12:57:12.857Z,13.2
2022-11-07T12:58:16.309Z,13.2
2022-11-07T12:59:19.132Z,13.2
2022-11-07T13:00:31.774Z,13.2
2022-11-07T13:01:36.161Z,13.2
2022-11-07T13:02:39.570Z,13.2
2022-11-07T13:03:43.191Z,13.2
2022-11-07T13:04:46.480Z,13.2
2022-11-07T13:05:49.014Z,13.2
2022-11-07T13:06:52.131Z,13.2
2022-11-07T13:07:55.005Z,13.1
2022-11-07T13:08:58.369Z,13.1
2022-11-07T13:10:01.473Z,13.2
2022-11-07T13:11:04.829Z,13.1
2022-11-07T13:12:07.997Z,13.1
2022-11-07T13:13:10.242Z,13.1
2022-11-07T13:14:13.677Z,13.1
2022-11-07T13:15:16.753Z,13.1
2022-11-07T13:16:19.289Z,13.1
2022-11-07T13:17:22.659Z,13.1
2022-11-07T13:18:26.092Z,13.1
2022-11-07T13:19:34.768Z,13.1
2022-11-07T13:20:37.949Z,13.2
2022-11-07T13:21:40.753Z,13.2
2022-11-07T13:22:43.965Z,13.2
2022-11-07T13:23:47.398Z,13.3
2022-11-07T13:24:50.274Z,13.3
2022-11-07T13:25:54.045Z,13.3
2022-11-07T13:26:56.993Z,13.3
2022-11-07T13:28:00.390Z,13.3
2022-11-07T13:29:03.694Z,13.3
2022-11-07T13:30:07.158Z,13.4
2022-11-07T13:31:10.355Z,13.3
2022-11-07T13:32:13.675Z,13.3
2022-11-07T13:33:19.150Z,13.3
2022-11-07T13:34:22.712Z,13.3
2022-11-07T13:35:25.520Z,13.3
2022-11-07T13:36:28.416Z,13.3
2022-11-07T13:37:31.501Z,13.3
2022-11-07T13:38:34.690Z,13.3
2022-11-07T13:39:37.758Z,13.2
2022-11-07T13:40:40.294Z,13.2
2022-11-07T13:41:42.728Z,13.2
2022-11-07T13:42:46.181Z,13.1
2022-11-07T13:43:56.555Z,13.1
2022-11-07T13:44:59.934Z,13.2
2022-11-07T13:46:03.400Z,13.2
2022-11-07T13:47:06.864Z,13.2
2022-11-07T13:48:10.501Z,13.2
2022-11-07T13:49:14.103Z,13.2
2022-11-07T13:50:16.889Z,13.2
2022-11-07T13:51:20.119Z,13.2
2022-11-07T13:52:23.455Z,13.2
2022-11-07T13:53:26.597Z,13.2
2022-11-07T13:54:30.384Z,13.2
2022-11-07T13:55:32.824Z,13.2
2022-11-07T13:56:35.982Z,13.2
2022-11-07T13:57:39.335Z,13.2
2022-11-07T13:58:42.467Z,13.1
2022-11-07T13:59:46.045Z,13.1
2022-11-07T14:00:50.401Z,13.1
2022-11-07T14:01:54.634Z,13.1
2022-11-07T14:02:58.699Z,13.1
2022-11-07T14:04:02.108Z,13.2
2022-11-07T14:05:19.682Z,13.1
2022-11-07T14:06:23.032Z,13.1
2022-11-07T14:07:28.465Z,13.1
2022-11-07T14:08:31.929Z,13.1
2022-11-07T14:09:35.344Z,13.2
2022-11-07T14:10:39.092Z,13.1
2022-11-07T14:11:42.190Z,13.1
2022-11-07T14:12:44.708Z,13.1
2022-11-07T14:13:47.898Z,13.1
2022-11-07T14:14:51.018Z,13.1
2022-11-07T14:15:54.067Z,13.1
2022-11-07T14:17:01.702Z,13.1
2022-11-07T14:18:05.433Z,13.1
2022-11-07T14:19:08.563Z,13.1
2022-11-07T14:20:11.553Z,13.1
2022-11-07T14:21:14.182Z,13
2022-11-07T14:22:17.079Z,13
2022-11-07T14:23:20.334Z,13
2022-11-07T14:24:23.344Z,13
2022-11-07T14:25:26.391Z,13
2022-11-07T14:26:29.218Z,13
2022-11-07T14:27:32.682Z,13
2022-11-07T14:28:35.794Z,13